Flight Track Log - Related Links

Times and Time Zones

All times are in EDT time to prevent confusion due to time zone crossing. See the AWE1926 flight status page for this flight to view local times or setup timezone preferences in your user account.


Time Position Orientation Groundspeed Altitude Reporting Facility
EDT Latitude Longitude Course Direction KTS MPH feet Rate Location/Type
Thu 05:18:36 PM 33.9422 -118.4839 68° East 169 194 1,900  Level Los Angeles Center
Thu 05:19:38 PM 33.8961 -118.5269 218° Southwest 220 253 2,600 968 Climbing Los Angeles Center
Thu 05:20:40 PM 33.8311 -118.5264 180° South 252 290 3,900 1,935 Climbing Los Angeles Center
Thu 05:21:00 PM 34.1428 -117.8245 67° East  Level Estimated
Thu 05:21:42 PM 33.7450 -118.5228 178° South 261 300 6,600  Level Los Angeles Center
Thu 05:22:00 PM 34.1925 -117.6782 68° East  Level Estimated
Thu 05:22:45 PM 33.6867 -118.4842 151° Southeast 276 318 8,300  Level Los Angeles Center
Thu 05:23:00 PM 34.2420 -117.5317 68° East  Level Estimated
Thu 05:23:47 PM 33.6606 -118.3981 110° East 278 320 9,900  Level Los Angeles Center
Thu 05:24:49 PM 33.6444 -118.3014 101° East 298 343 10,800 1,403 Climbing Los Angeles Center
Thu 05:25:51 PM 33.6447 -118.1703 90° East 330 380 12,800 1,694 Climbing Los Angeles Center
Thu 05:26:53 PM 33.6494 -118.0575 87° East 345 397 14,300 1,403 Climbing Los Angeles Center
Thu 05:27:55 PM 33.6828 -117.9442 71° East 362 417 15,700 1,355 Climbing Los Angeles Center
Thu 05:28:57 PM 33.7161 -117.8319 70° East 362 417 17,100 1,536 Climbing Los Angeles Center
Thu 05:30:00 PM 33.7081 -117.6831 94° East 372 428 18,900 1,488 Climbing Los Angeles Center
Thu 05:31:02 PM 33.7017 -117.5597 94° East 371 427 20,200 1,210 Climbing Los Angeles Center
Thu 05:32:04 PM 33.6964 -117.4319 93° East 381 438 21,400 1,258 Climbing Los Angeles Center
Thu 05:33:06 PM 33.6886 -117.3017 94° East 382 440 22,800 1,161 Climbing Los Angeles Center
Thu 05:34:08 PM 33.6825 -117.1764 93° East 383 441 23,800 919 Climbing Los Angeles Center
Thu 05:35:10 PM 33.6764 -117.0456 93° East 391 450 24,700 912 Climbing Los Angeles Center
Thu 05:36:13 PM 33.6678 -116.8858 94° East 398 458 25,700 624 Climbing Los Angeles Center
Thu 05:37:15 PM 33.6608 -116.7658 94° East 407 468 26,000 581 Climbing Los Angeles Center
Thu 05:38:17 PM 33.6544 -116.5944 93° East 423 487 26,900 726 Climbing Los Angeles Center
Thu 05:39:19 PM 33.6864 -116.4525 75° East 436 502 27,500 581 Climbing Los Angeles Center
Thu 05:40:21 PM 33.7200 -116.3111 74° East 437 503 28,100 581 Climbing Los Angeles Center
Thu 05:41:23 PM 33.7550 -116.1675 74° East 443 510 28,700 480 Climbing Los Angeles Center
Thu 05:42:26 PM 33.7894 -116.0203 74° East 452 520 29,100 528 Climbing Los Angeles Center
Thu 05:43:28 PM 33.8242 -115.8747 74° East 452 520 29,800 823 Climbing Los Angeles Center
Thu 05:44:30 PM 33.8653 -115.7019 74° East 452 520 30,800 581 Climbing Los Angeles Center
Thu 05:45:32 PM 33.8986 -115.5569 74° East 451 519 31,000 97 Climbing Los Angeles Center
Thu 05:46:34 PM 33.9339 -115.4081 74° East 456 525 31,000  Level Los Angeles Center
Thu 05:47:36 PM 33.9692 -115.2558 74° East 468 539 31,000  Level Los Angeles Center
Thu 05:48:38 PM 34.0025 -115.1028 75° East 469 540 31,000  Level Los Angeles Center
Thu 05:49:41 PM 34.0381 -114.9511 74° East 469 540 31,000  Level Los Angeles Center
Thu 05:50:43 PM 34.0833 -114.7686 73° East 471 542 31,000  Level Los Angeles Center
Thu 05:51:45 PM 34.1197 -114.6181 74° East 471 542 31,000 -48 Level Los Angeles Center
Thu 05:52:47 PM 34.1639 -114.4700 70° East 472 543 30,900 -48 Descending Los Angeles Center
Thu 05:53:49 PM 34.2072 -114.3231 70° East 470 541 30,900  Level Los Angeles Center
Thu 05:54:51 PM 34.2475 -114.1764 72° East 467 537 30,900 59 Level Los Angeles Center
Thu 05:55:30 PM 34.2764 -114.0650 73° East 471 542 31,000 59 Climbing Albuquerque Center
Thu 05:56:32 PM 34.3172 -113.9178 71° East 470 541 31,000  Level Albuquerque Center
Thu 05:57:34 PM 34.3575 -113.7708 72° East 465 535 31,000  Level Albuquerque Center
Thu 05:58:36 PM 34.3994 -113.6128 72° East 465 535 31,000  Level Albuquerque Center
Thu 05:59:39 PM 34.4456 -113.4439 72° East 465 535 31,000  Level Albuquerque Center
Thu 06:00:41 PM 34.4872 -113.2950 71° East 465 535 31,000  Level Albuquerque Center
Thu 06:01:43 PM 34.5261 -113.1442 73° East 467 537 31,000  Level Albuquerque Center
Thu 06:02:45 PM 34.5658 -112.9950 72° East 467 537 31,000  Level Albuquerque Center
Thu 06:03:47 PM 34.6061 -112.8461 72° East 468 539 31,000  Level Albuquerque Center
Thu 06:04:49 PM 34.6531 -112.6681 72° East 468 539 31,000  Level Albuquerque Center
Thu 06:05:51 PM 34.6917 -112.5183 73° East 468 539 31,000  Level Albuquerque Center
Thu 06:06:53 PM 34.7286 -112.3683 73° East 468 539 31,000  Level Albuquerque Center
Thu 06:07:55 PM 34.7625 -112.2186 75° East 468 539 31,000  Level Albuquerque Center
Thu 06:08:57 PM 34.7969 -112.0669 75° East 468 539 31,000  Level Albuquerque Center
Thu 06:09:59 PM 34.8372 -111.8861 75° East 468 539 31,000  Level Albuquerque Center
Thu 06:11:02 PM 34.8714 -111.7364 74° East 468 539 31,000  Level Albuquerque Center
Thu 06:12:04 PM 34.9047 -111.5861 75° East 467 537 31,000  Level Albuquerque Center
Thu 06:13:06 PM 34.9389 -111.4328 75° East 467 537 31,000  Level Albuquerque Center
Thu 06:14:08 PM 34.9728 -111.2794 75° East 467 537 31,000  Level Albuquerque Center
Thu 06:15:10 PM 35.0133 -111.0969 75° East 467 537 31,000  Level Albuquerque Center
Thu 06:16:12 PM 35.0464 -110.9442 75° East 467 537 31,000  Level Albuquerque Center
Thu 06:17:14 PM 35.0794 -110.7942 75° East 467 537 31,000  Level Albuquerque Center
Thu 06:18:16 PM 35.1156 -110.6242 75° East 467 537 31,000  Level Albuquerque Center
Thu 06:19:18 PM 35.1472 -110.4781 75° East 467 537 31,000  Level Albuquerque Center
Thu 06:20:20 PM 35.1836 -110.3083 75° East 466 536 31,000  Level Albuquerque Center
Thu 06:21:22 PM 35.2156 -110.1628 75° East 465 535 31,000  Level Albuquerque Center
Thu 06:22:24 PM 35.2506 -109.9917 76° East 465 535 31,000  Level Albuquerque Center
Thu 06:23:27 PM 35.2806 -109.8461 76° East 465 535 31,000  Level Albuquerque Center
Thu 06:24:28 PM 35.3156 -109.6739 76° East 465 535 31,000  Level Albuquerque Center
Thu 06:25:30 PM 35.3447 -109.5269 76° East 465 535 31,000  Level Albuquerque Center
Thu 06:26:33 PM 35.3792 -109.3547 76° East 465 535 31,000  Level Albuquerque Center
Thu 06:27:35 PM 35.4086 -109.2089 76° East 465 535 31,000  Level Albuquerque Center
Thu 06:28:37 PM 35.4436 -109.0386 76° East 465 535 31,000  Level Albuquerque Center
Thu 06:29:39 PM 35.4725 -108.8928 76° East 465 535 31,000  Level Albuquerque Center
Thu 06:30:41 PM 35.5164 -108.7247 72° East 465 535 31,000  Level Albuquerque Center
Thu 06:31:43 PM 35.5567 -108.5817 71° East 465 535 31,000  Level Albuquerque Center
Thu 06:32:45 PM 35.6019 -108.4122 72° East 466 536 31,000  Level Albuquerque Center
Thu 06:33:47 PM 35.6394 -108.2694 72° East 466 536 31,000  Level Albuquerque Center
Thu 06:34:49 PM 35.6842 -108.1022 72° East 465 535 31,000  Level Albuquerque Center
Thu 06:35:51 PM 35.7219 -107.9581 72° East 465 535 31,000  Level Albuquerque Center
Thu 06:36:53 PM 35.7653 -107.7911 72° East 464 534 31,000  Level Albuquerque Center
Thu 06:37:55 PM 35.8047 -107.6456 71° East 465 535 31,000  Level Albuquerque Center
Thu 06:38:57 PM 35.8486 -107.4756 72° East 465 535 31,000  Level Albuquerque Center
Thu 06:39:59 PM 35.8869 -107.3303 72° East 466 536 31,000  Level Albuquerque Center
Thu 06:41:01 PM 35.9242 -107.1844 72° East 466 536 31,000  Level Albuquerque Center
Thu 06:42:03 PM 35.9672 -107.0161 72° East 465 535 31,000  Level Albuquerque Center
Thu 06:43:05 PM 36.0058 -106.8700 72° East 465 535 31,000  Level Albuquerque Center
Thu 06:44:06 PM 36.0489 -106.6997 73° East 465 535 31,000  Level Albuquerque Center
Thu 06:45:08 PM 36.0861 -106.5533 72° East 465 535 31,000  Level Albuquerque Center
Thu 06:46:10 PM 36.1292 -106.3733 73° East 475 547 31,000  Level Albuquerque Center
Thu 06:47:12 PM 36.1669 -106.2197 73° East 473 544 31,000  Level Albuquerque Center
Thu 06:48:14 PM 36.2056 -106.0661 73° East 468 539 31,000 -48 Level Albuquerque Center
Thu 06:49:16 PM 36.2422 -105.9142 73° East 463 533 30,900 -48 Descending Albuquerque Center
Thu 06:50:18 PM 36.2786 -105.7622 73° East 460 529 30,900  Level Albuquerque Center
Thu 06:51:19 PM 36.3153 -105.6106 73° East 460 529 30,900 49 Level Albuquerque Center
Thu 06:52:21 PM 36.3556 -105.4503 73° East 459 528 31,000 97 Climbing Albuquerque Center
Thu 06:53:23 PM 36.3919 -105.2972 74° East 459 528 31,100  Climbing Albuquerque Center
Thu 06:54:25 PM 36.4275 -105.1458 74° East 457 526 31,000 -48 Descending Albuquerque Center
Thu 06:55:27 PM 36.4636 -104.9939 73° East 455 524 31,000  Level Albuquerque Center
Thu 06:56:29 PM 36.5011 -104.8444 73° East 452 520 31,000  Level Albuquerque Center
Thu 06:57:31 PM 36.5614 -104.6789 66° East 445 512 31,000  Level Albuquerque Center
Thu 06:58:32 PM 36.6125 -104.5389 66° East 445 512 31,000  Level Albuquerque Center
Thu 06:59:34 PM 36.6636 -104.3997 65° Northeast 442 509 31,000  Level Albuquerque Center
Thu 07:00:36 PM 36.7142 -104.2622 65° Northeast 442 509 31,000  Level Albuquerque Center
Thu 07:01:38 PM 36.7694 -104.1072 66° East 441 507 31,000  Level Albuquerque Center
Thu 07:02:40 PM 36.8175 -103.9747 66° East 441 507 31,000  Level Albuquerque Center
Thu 07:03:42 PM 36.8736 -103.8203 66° East 441 507 31,000  Level Albuquerque Center
Thu 07:04:44 PM 36.9206 -103.6869 66° East 441 507 31,000  Level Albuquerque Center
Thu 07:05:46 PM 36.9678 -103.5528 66° East 441 507 31,000  Level Albuquerque Center
Thu 07:06:47 PM 37.0225 -103.3972 66° East 441 507 31,000  Level Albuquerque Center
Thu 07:07:49 PM 37.0692 -103.2644 66° East 440 506 31,000  Level Albuquerque Center
Thu 07:08:51 PM 37.1239 -103.1089 66° East 440 506 31,000  Level Albuquerque Center
Thu 07:09:53 PM 37.1703 -102.9744 67° East 440 506 31,000  Level Albuquerque Center
Thu 07:10:55 PM 37.2264 -102.8156 66° East 445 512 31,000  Level Albuquerque Center
Thu 07:11:57 PM 37.2736 -102.6797 66° East 445 512 31,000  Level Albuquerque Center
Thu 07:12:59 PM 37.3264 -102.5225 67° East 442 509 31,000  Level Albuquerque Center
Thu 07:14:01 PM 37.3736 -102.3883 66° East 442 509 31,000  Level Albuquerque Center
Thu 07:15:02 PM 37.4236 -102.2314 68° East 441 507 31,000  Level Kansas City Center
Thu 07:16:05 PM 37.4689 -102.0950 67° East 441 507 31,000 48 Level Kansas City Center
Thu 07:17:07 PM 37.5219 -101.9367 67° East 441 507 31,100  Climbing Kansas City Center
Thu 07:18:09 PM 37.5678 -101.8022 67° East 440 506 31,000 -48 Descending Kansas City Center
Thu 07:19:11 PM 37.6189 -101.6425 68° East 440 506 31,000  Level Kansas City Center
Thu 07:20:13 PM 37.6639 -101.5078 67° East 439 505 31,000  Level Kansas City Center
Thu 07:21:15 PM 37.7164 -101.3492 67° East 439 505 31,000  Level Kansas City Center
Thu 07:22:17 PM 37.7611 -101.2131 67° East 438 504 31,000  Level Kansas City Center
Thu 07:23:19 PM 37.8061 -101.0747 68° East 439 505 31,000  Level Kansas City Center
Thu 07:24:21 PM 37.8589 -100.9122 68° East 439 505 31,000  Level Kansas City Center
Thu 07:25:23 PM 37.9039 -100.7736 68° East 439 505 31,000  Level Kansas City Center
Thu 07:26:25 PM 37.9564 -100.6139 67° East 439 505 31,000  Level Kansas City Center
Thu 07:27:27 PM 38.0025 -100.4783 67° East 438 504 31,000  Level Kansas City Center
Thu 07:28:29 PM 38.0478 -100.3431 67° East 438 504 31,000  Level Kansas City Center
Thu 07:29:31 PM 38.1006 -100.1867 67° East 436 502 31,000  Level Kansas City Center
Thu 07:30:33 PM 38.1464 -100.0531 66° East 435 501 31,000  Level Kansas City Center
Thu 07:31:35 PM 38.1967 -99.8953 68° East 433 498 31,000  Level Kansas City Center
Thu 07:32:37 PM 38.2431 -99.7597 66° East 433 498 31,000  Level Kansas City Center
Thu 07:33:40 PM 38.2950 -99.6033 67° East 434 499 31,000  Level Kansas City Center
Thu 07:34:42 PM 38.3344 -99.4822 67° East 433 498 31,000  Level Kansas City Center
Thu 07:35:44 PM 38.3886 -99.3133 68° East 433 498 31,000  Level Kansas City Center
Thu 07:36:46 PM 38.4347 -99.1714 67° East 432 497 31,000  Level Kansas City Center
Thu 07:37:48 PM 38.4814 -99.0322 67° East 431 496 31,000  Level Kansas City Center
Thu 07:38:50 PM 38.5261 -98.8900 68° East 431 496 31,000  Level Kansas City Center
Thu 07:39:52 PM 38.5719 -98.7500 67° East 430 495 31,000  Level Kansas City Center
Thu 07:40:54 PM 38.6167 -98.6083 68° East 430 495 31,000  Level Kansas City Center
Thu 07:41:56 PM 38.6708 -98.4392 68° East 430 495 31,000  Level Kansas City Center
Thu 07:42:58 PM 38.7158 -98.2981 68° East 429 494 31,000  Level Kansas City Center
Thu 07:44:00 PM 38.7594 -98.1569 68° East 429 494 31,000  Level Kansas City Center
Thu 07:45:02 PM 38.8047 -98.0161 68° East 428 493 31,000  Level Kansas City Center
Thu 07:46:04 PM 38.8481 -97.8758 68° East 426 490 31,000  Level Kansas City Center
Thu 07:47:06 PM 38.8911 -97.7356 68° East 425 489 31,000  Level Kansas City Center
Thu 07:48:08 PM 38.9308 -97.5911 70° East 426 490 31,000  Level Kansas City Center
Thu 07:49:10 PM 38.9556 -97.4050 80° East 436 502 31,000  Level Kansas City Center
Thu 07:50:12 PM 38.9767 -97.2497 80° East 440 506 31,000  Level Kansas City Center
Thu 07:51:15 PM 38.9986 -97.0919 80° East 447 514 31,000  Level Kansas City Center
Thu 07:52:17 PM 39.0192 -96.9331 80° East 450 518 31,000  Level Kansas City Center
Thu 07:53:19 PM 39.0400 -96.7722 80° East 451 519 31,000  Level Kansas City Center
Thu 07:54:21 PM 39.0611 -96.6058 81° East 462 532 31,000 48 Level Kansas City Center
Thu 07:55:23 PM 39.0864 -96.3994 81° East 471 542 31,100  Climbing Kansas City Center
Thu 07:56:25 PM 39.1044 -96.2517 81° East 472 543 31,000 -48 Descending Kansas City Center
Thu 07:57:27 PM 39.1281 -96.0650 81° East 472 543 31,000  Level Kansas City Center
Thu 07:58:29 PM 39.1497 -95.8881 81° East 476 548 31,000  Level Kansas City Center
Thu 07:59:31 PM 39.1717 -95.7039 81° East 484 557 31,000 48 Level Kansas City Center
Thu 08:00:33 PM 39.1933 -95.5317 81° East 487 560 31,100 48 Climbing Kansas City Center
Thu 08:01:35 PM 39.2139 -95.3456 82° East 492 566 31,100 -48 Level Kansas City Center
Thu 08:02:37 PM 39.2356 -95.1639 81° East 493 567 31,000 -48 Descending Kansas City Center
Thu 08:03:39 PM 39.2569 -94.9825 81° East 491 565 31,000  Level Kansas City Center
Thu 08:04:41 PM 39.2764 -94.7997 82° East 493 567 31,000  Level Kansas City Center
Thu 08:05:43 PM 39.2964 -94.6292 81° East 496 571 31,000  Level Kansas City Center
Thu 08:06:45 PM 39.3231 -94.4508 79° East 492 566 31,000  Level Kansas City Center
Thu 08:07:47 PM 39.3472 -94.2603 81° East 496 571 31,000 145 Level Kansas City Center
Thu 08:08:49 PM 39.3697 -94.0847 81° East 497 572 31,300 480 Climbing Kansas City Center
Thu 08:09:52 PM 39.3936 -93.8925 81° East 499 574 32,000 576 Climbing Kansas City Center
Thu 08:10:54 PM 39.4158 -93.7236 80° East 505 581 32,500 484 Climbing Kansas City Center
Thu 08:11:56 PM 39.4367 -93.5447 81° East 506 582 33,000 242 Climbing Kansas City Center
Thu 08:12:58 PM 39.4583 -93.3653 81° East 507 583 33,000  Level Kansas City Center
Thu 08:14:00 PM 39.4839 -93.1519 81° East 507 583 33,000  Level Kansas City Center
Thu 08:15:02 PM 39.5044 -92.9722 82° East 507 583 33,000  Level Kansas City Center
Thu 08:16:04 PM 39.5258 -92.7942 81° East 507 583 33,000  Level Kansas City Center
Thu 08:17:06 PM 39.5461 -92.6158 82° East 507 583 33,000  Level Kansas City Center
Thu 08:18:08 PM 39.5653 -92.4381 82° East 506 582 33,000  Level Kansas City Center
Thu 08:19:10 PM 39.5886 -92.2242 82° East 506 582 33,000  Level Kansas City Center
Thu 08:20:12 PM 39.6086 -92.0453 82° East 506 582 33,000  Level Kansas City Center
Thu 08:21:14 PM 39.6264 -91.8669 83° East 506 582 33,000  Level Kansas City Center
Thu 08:22:16 PM 39.6467 -91.6858 82° East 507 583 33,000  Level Kansas City Center
Thu 08:23:18 PM 39.6700 -91.4689 82° East 508 585 33,000  Level Kansas City Center
Thu 08:24:20 PM 39.6892 -91.2831 82° East 509 586 33,000  Level Kansas City Center
Thu 08:25:23 PM 39.7072 -91.1028 83° East 508 585 33,000  Level Kansas City Center
Thu 08:26:25 PM 39.7253 -90.9236 82° East 504 580 33,000  Level Kansas City Center
Thu 08:27:27 PM 39.7422 -90.7464 83° East 498 573 33,000  Level Kansas City Center
Thu 08:28:29 PM 39.7614 -90.5433 83° East 498 573 33,000  Level Kansas City Center
Thu 08:29:31 PM 39.7781 -90.3636 83° East 499 574 33,000  Level Kansas City Center
Thu 08:30:33 PM 39.7950 -90.1836 83° East 500 575 33,000  Level Kansas City Center
Thu 08:31:34 PM 39.8033 -90.0017 87° East 504 580 33,000  Level Kansas City Center
Thu 08:32:36 PM 39.8061 -89.8239 89° East 502 578 33,000  Level Kansas City Center
Thu 08:33:38 PM 39.8094 -89.6442 89° East 501 577 33,000  Level Kansas City Center
Thu 08:34:40 PM 39.8128 -89.4283 89° East 501 577 33,000  Level Kansas City Center
Thu 08:35:42 PM 39.8147 -89.2492 89° East 501 577 33,000  Level Kansas City Center
Thu 08:36:44 PM 39.8175 -89.0678 89° East 501 577 33,000  Level Kansas City Center
Thu 08:37:46 PM 39.8186 -88.8897 89° East 500 575 33,000  Level Kansas City Center
Thu 08:38:47 PM 39.8194 -88.7086 90° East 500 575 33,000  Level Kansas City Center
Thu 08:39:49 PM 39.8225 -88.5289 89° East 500 575 33,000  Level Kansas City Center
Thu 08:40:51 PM 39.8228 -88.3131 90° East 500 575 33,000  Level Kansas City Center
Thu 08:41:53 PM 39.8236 -88.1378 90° East 500 575 33,000  Level Kansas City Center
Thu 08:42:55 PM 39.8236 -87.9600 90° East 497 572 33,000  Level Kansas City Center
Thu 08:43:57 PM 39.8239 -87.7789 90° East 496 571 33,000  Level Kansas City Center
Thu 08:44:58 PM 39.8239 -87.5989 90° East 496 571 33,000  Level Kansas City Center
Thu 08:46:07 PM 39.8225 -87.3744 90° East 495 570 33,000  Level Indianapolis Center
Thu 08:47:11 PM 39.8217 -87.1972 90° East 495 570 33,000  Level Indianapolis Center
Thu 08:48:11 PM 39.8211 -87.0158 90° East 496 571 33,000  Level Indianapolis Center
Thu 08:49:15 PM 39.8231 -86.8356 89° East 497 572 33,000  Level Indianapolis Center
Thu 08:50:15 PM 39.8419 -86.6519 82° East 505 581 33,000  Level Indianapolis Center
Thu 08:51:17 PM 39.8597 -86.4689 83° East 507 583 33,000  Level Indianapolis Center
Thu 08:52:20 PM 39.8769 -86.2797 83° East 508 585 33,000  Level Indianapolis Center
Thu 08:53:21 PM 39.8939 -86.0939 83° East 508 585 33,000  Level Indianapolis Center
Thu 08:54:22 PM 39.9100 -85.9103 83° East 508 585 33,000  Level Indianapolis Center
Thu 08:55:26 PM 39.9294 -85.6911 83° East 508 585 33,000  Level Indianapolis Center
Thu 08:56:26 PM 39.9447 -85.5081 84° East 508 585 33,000  Level Indianapolis Center
Thu 08:57:27 PM 39.9603 -85.3258 84° East 508 585 33,000  Level Indianapolis Center
Thu 08:58:28 PM 39.9747 -85.1444 84° East 508 585 33,000  Level Indianapolis Center
Thu 08:59:32 PM 39.9900 -84.9619 84° East 507 583 33,000  Level Indianapolis Center
Thu 09:00:33 PM 40.0069 -84.7606 84° East 507 583 33,000  Level Indianapolis Center
Thu 09:01:35 PM 40.0203 -84.5783 84° East 507 583 33,000  Level Indianapolis Center
Thu 09:02:35 PM 40.0344 -84.3967 84° East 506 582 33,000  Level Indianapolis Center
Thu 09:03:39 PM 40.0481 -84.2142 84° East 506 582 33,000  Level Indianapolis Center
Thu 09:04:39 PM 40.0611 -84.0328 85° East 506 582 33,000  Level Indianapolis Center
Thu 09:05:40 PM 40.0739 -83.8514 85° East 505 581 33,000  Level Indianapolis Center
Thu 09:06:43 PM 40.0869 -83.6672 85° East 504 580 33,000  Level Indianapolis Center
Thu 09:07:44 PM 40.1003 -83.4836 85° East 504 580 33,000  Level Indianapolis Center
Thu 09:08:48 PM 40.1133 -83.2642 85° East 504 580 33,000  Level Indianapolis Center
Thu 09:09:48 PM 40.1244 -83.0853 85° East 497 572 33,000  Level Indianapolis Center
Thu 09:10:49 PM 40.1364 -82.9075 85° East 495 570 33,000  Level Indianapolis Center
Thu 09:11:52 PM 40.1469 -82.7297 86° East 493 567 33,000  Level Indianapolis Center
Thu 09:12:53 PM 40.1572 -82.5536 86° East 492 566 33,000  Level Indianapolis Center
Thu 09:13:54 PM 40.1681 -82.3756 85° East 492 566 33,000  Level Indianapolis Center
Thu 09:14:56 PM 40.1778 -82.1972 86° East 492 566 33,000  Level Indianapolis Center
Thu 09:15:57 PM 40.1878 -82.0206 86° East 491 565 33,000  Level Indianapolis Center
Thu 09:17:00 PM 40.1972 -81.8428 86° East 491 565 33,000  Level Indianapolis Center
Thu 09:18:01 PM 40.2075 -81.6344 86° East 491 565 33,000  Level Indianapolis Center
Thu 09:19:03 PM 40.2169 -81.4561 86° East 491 565 33,000  Level Indianapolis Center
Thu 09:20:03 PM 40.2256 -81.2758 86° East 491 565 33,000  Level Indianapolis Center
Thu 09:21:07 PM 40.2344 -81.0967 86° East 491 565 33,000  Level Indianapolis Center
Thu 09:22:08 PM 40.2425 -80.9200 87° East 491 565 33,000  Level Indianapolis Center
Thu 09:23:09 PM 40.2500 -80.7414 87° East 490 564 33,000  Level Indianapolis Center
Thu 09:24:10 PM 40.2592 -80.5339 87° East 490 564 33,000  Level Indianapolis Center
Thu 09:25:13 PM 40.2653 -80.3578 87° East 486 559 33,000  Level Indianapolis Center
Thu 09:26:15 PM 40.2731 -80.1797 87° East 486 559 33,000  Level Indianapolis Center
Thu 09:27:35 PM 40.2800 -79.9625 88° East 489 563 33,000  Level Cleveland Center
Thu 09:28:37 PM 40.2878 -79.7528 87° East 488 562 33,000  Level Cleveland Center
Thu 09:29:38 PM 40.2936 -79.5772 87° East 487 560 33,000  Level Cleveland Center
Thu 09:30:40 PM 40.2989 -79.4033 88° East 484 557 33,000  Level Cleveland Center
Thu 09:31:42 PM 40.3036 -79.2372 88° East 480 552 33,000  Level Cleveland Center
Thu 09:32:43 PM 40.3100 -79.0317 88° East 478 550 33,000 -146 Level Cleveland Center
Thu 09:33:45 PM 40.3153 -78.8611 88° East 478 550 32,700 -634 Descending Cleveland Center
Thu 09:34:46 PM 40.3169 -78.6886 89° East 478 550 31,700 -927 Descending Cleveland Center
Thu 09:35:48 PM 40.3161 -78.5158 90° East 479 551 30,800 -919 Descending Cleveland Center
Thu 09:36:50 PM 40.3156 -78.3417 90° East 481 554 29,800 -1,561 Descending Cleveland Center
Thu 09:37:51 PM 40.3150 -78.1678 90° East 483 556 27,600 -2,244 Descending Cleveland Center
Thu 09:38:53 PM 40.3144 -77.9683 90° East 465 535 25,200 -2,081 Descending Cleveland Center
Thu 09:39:55 PM 40.3128 -77.8081 91° East 450 518 23,300 -1,415 Descending Cleveland Center
Thu 09:40:56 PM 40.3022 -77.6514 95° East 437 503 22,300 -927 Descending Cleveland Center
Thu 09:41:58 PM 40.2856 -77.4997 98° East 428 493 21,400 -919 Descending Cleveland Center
Thu 09:43:00 PM 40.2697 -77.3486 98° East 423 487 20,400 -976 Descending Cleveland Center
Thu 09:44:01 PM 40.2533 -77.1997 98° East 415 478 19,400 -1,073 Descending Cleveland Center
Thu 09:45:03 PM 40.2336 -77.0236 98° East 408 470 18,200 -677 Descending Cleveland Center
Thu 09:46:05 PM 40.2172 -76.8806 98° East 400 460 18,000 -98 Descending Cleveland Center
Thu 09:47:06 PM 40.2011 -76.7397 98° East 396 456 18,000 -439 Level Cleveland Center
Thu 09:48:08 PM 40.1850 -76.5981 98° East 393 452 17,100 -919 Descending Cleveland Center
Thu 09:49:10 PM 40.1689 -76.4600 99° East 388 447 16,100 -1,314 Descending Cleveland Center
Thu 09:50:25 PM 40.1469 -76.2917 100° East 385 443 14,100 -1,733 Descending New York Center
Thu 09:51:25 PM 40.1286 -76.1436 99° East 373 429 12,200 -1,700 Descending New York Center
Thu 09:52:25 PM 40.1158 -76.0150 97° East 368 423 10,700 -1,100 Descending New York Center
Thu 09:53:25 PM 40.1000 -75.8969 100° East 341 392 10,000 -1,150 Descending New York Center
Thu 09:54:25 PM 40.0872 -75.8067 100° East 302 348 8,400 -1,200 Descending New York Center
Thu 09:55:25 PM 40.0750 -75.7025 99° East 271 312 7,600 -1,000 Descending New York Center
Thu 09:56:25 PM 40.0314 -75.6506 138° Southeast 231 266 6,400 -750 Descending New York Center
Thu 09:57:25 PM 39.9794 -75.5928 140° Southeast 226 260 6,100 -150 Descending New York Center
Thu 09:58:25 PM 39.9417 -75.5497 139° Southeast 215 247 6,100 -50 Level New York Center
Thu 09:59:25 PM 39.8914 -75.5542 184° South 169 194 6,000 -796 Descending New York Center
Thu 10:00:18 PM 39.8667 -75.6167 243° Southwest 193 222 4,600 -1,381 Descending Philadelphia TRACON
Thu 10:01:18 PM 39.8333 -75.6333 201° Southwest 171 197 3,400 -800 Descending Philadelphia TRACON
Thu 10:02:18 PM 39.8000 -75.6000 142° Southeast 150 173 3,000 -150 Descending Philadelphia TRACON
Thu 10:03:18 PM 39.8000 -75.5500 90° East 144 166 3,100  Climbing Philadelphia TRACON
Thu 10:04:18 PM 39.8167 -75.5000 67° East 142 163 3,000 -95 Descending Philadelphia TRACON
Thu 10:05:24 PM 39.8333 -75.4500 67° East 141 162 2,900 -400 Descending Philadelphia TRACON
Thu 10:06:18 PM 39.8333 -75.4000 90° East 146 168 2,200 -800 Descending Philadelphia TRACON
Thu 10:07:24 PM 39.8500 -75.3500 67° East 141 162 1,300 -800 Descending Philadelphia TRACON
Thu 10:08:18 PM 39.8500 -75.3000 90° East 137 158 600 -778 Descending Philadelphia TRACON

Login

Don't have an account? Register now (free) for customized features, flight alerts, and more!